sensor_id;sensor_type;location;lat;lon;timestamp;temperature;humidity
23579;DHT22;11967;50.852;4.400;2023-12-20T00:01:01;10.50;99.90
23579;DHT22;11967;50.852;4.400;2023-12-20T00:03:27;10.30;99.90
23579;DHT22;11967;50.852;4.400;2023-12-20T00:05:52;10.20;99.90
23579;DHT22;11967;50.852;4.400;2023-12-20T00:08:18;10.30;99.90
23579;DHT22;11967;50.852;4.400;2023-12-20T00:10:44;10.30;99.90
23579;DHT22;11967;50.852;4.400;2023-12-20T00:13:10;10.30;99.90
23579;DHT22;11967;50.852;4.400;2023-12-20T00:15:36;10.20;99.90
23579;DHT22;11967;50.852;4.400;2023-12-20T00:18:02;10.20;99.90
23579;DHT22;11967;50.852;4.400;2023-12-20T00:20:28;10.10;99.90
23579;DHT22;11967;50.852;4.400;2023-12-20T00:22:58;10.10;99.90
23579;DHT22;11967;50.852;4.400;2023-12-20T00:25:24;10.10;99.90
23579;DHT22;11967;50.852;4.400;2023-12-20T00:27:50;10.10;99.90
23579;DHT22;11967;50.852;4.400;2023-12-20T00:30:15;10.10;99.90
23579;DHT22;11967;50.852;4.400;2023-12-20T00:32:41;10.20;99.90
23579;DHT22;11967;50.852;4.400;2023-12-20T00:35:15;10.20;99.90
23579;DHT22;11967;50.852;4.400;2023-12-20T00:37:44;10.20;99.90
23579;DHT22;11967;50.852;4.400;2023-12-20T00:40:10;10.20;99.90
23579;DHT22;11967;50.852;4.400;2023-12-20T00:42:36;10.30;99.90
23579;DHT22;11967;50.852;4.400;2023-12-20T00:45:02;10.20;99.90
23579;DHT22;11967;50.852;4.400;2023-12-20T00:47:30;10.20;99.90
23579;DHT22;11967;50.852;4.400;2023-12-20T00:49:57;10.10;99.90
23579;DHT22;11967;50.852;4.400;2023-12-20T00:52:23;10.10;99.90
23579;DHT22;11967;50.852;4.400;2023-12-20T00:54:49;10.10;99.90
23579;DHT22;11967;50.852;4.400;2023-12-20T00:57:14;10.00;99.90
23579;DHT22;11967;50.852;4.400;2023-12-20T00:59:40;10.00;99.90
23579;DHT22;11967;50.852;4.400;2023-12-20T01:02:06;10.00;99.90
23579;DHT22;11967;50.852;4.400;2023-12-20T01:04:32;9.90;99.90
23579;DHT22;11967;50.852;4.400;2023-12-20T01:06:57;9.80;99.90
23579;DHT22;11967;50.852;4.400;2023-12-20T01:09:23;9.80;99.90
23579;DHT22;11967;50.852;4.400;2023-12-20T01:11:52;9.80;99.90
23579;DHT22;11967;50.852;4.400;2023-12-20T01:14:17;9.80;99.90
23579;DHT22;11967;50.852;4.400;2023-12-20T01:16:43;9.80;99.90
23579;DHT22;11967;50.852;4.400;2023-12-20T01:19:09;9.80;99.90
23579;DHT22;11967;50.852;4.400;2023-12-20T01:21:34;9.80;99.90
23579;DHT22;11967;50.852;4.400;2023-12-20T01:24:01;9.90;99.90
23579;DHT22;11967;50.852;4.400;2023-12-20T01:26:27;9.80;99.90
23579;DHT22;11967;50.852;4.400;2023-12-20T01:28:53;9.70;99.90
23579;DHT22;11967;50.852;4.400;2023-12-20T01:31:19;9.60;99.90
23579;DHT22;11967;50.852;4.400;2023-12-20T01:33:44;9.70;99.90
23579;DHT22;11967;50.852;4.400;2023-12-20T01:36:10;9.70;99.90
23579;DHT22;11967;50.852;4.400;2023-12-20T01:38:36;9.60;99.90
23579;DHT22;11967;50.852;4.400;2023-12-20T01:41:02;9.60;99.90
23579;DHT22;11967;50.852;4.400;2023-12-20T01:43:28;9.50;99.90
23579;DHT22;11967;50.852;4.400;2023-12-20T01:45:55;9.60;99.90
23579;DHT22;11967;50.852;4.400;2023-12-20T01:48:22;9.70;99.90
23579;DHT22;11967;50.852;4.400;2023-12-20T01:50:49;9.70;99.90
23579;DHT22;11967;50.852;4.400;2023-12-20T01:53:15;9.70;99.90
23579;DHT22;11967;50.852;4.400;2023-12-20T01:55:41;9.70;99.90
23579;DHT22;11967;50.852;4.400;2023-12-20T01:58:09;9.70;99.90
23579;DHT22;11967;50.852;4.400;2023-12-20T02:00:36;9.70;99.90
23579;DHT22;11967;50.852;4.400;2023-12-20T02:03:03;9.70;99.90
23579;DHT22;11967;50.852;4.400;2023-12-20T02:05:33;9.70;99.90
23579;DHT22;11967;50.852;4.400;2023-12-20T02:07:59;9.60;99.90
23579;DHT22;11967;50.852;4.400;2023-12-20T02:10:25;9.60;99.90
23579;DHT22;11967;50.852;4.400;2023-12-20T02:12:51;9.50;99.90
23579;DHT22;11967;50.852;4.400;2023-12-20T02:15:17;9.40;99.90
23579;DHT22;11967;50.852;4.400;2023-12-20T02:17:43;9.40;99.90
23579;DHT22;11967;50.852;4.400;2023-12-20T02:20:10;9.40;99.90
23579;DHT22;11967;50.852;4.400;2023-12-20T02:22:35;9.40;99.90
23579;DHT22;11967;50.852;4.400;2023-12-20T02:25:01;9.40;99.90
23579;DHT22;11967;50.852;4.400;2023-12-20T02:27:27;9.50;99.90
23579;DHT22;11967;50.852;4.400;2023-12-20T02:29:53;9.50;99.90
23579;DHT22;11967;50.852;4.400;2023-12-20T02:32:19;9.60;99.90
23579;DHT22;11967;50.852;4.400;2023-12-20T02:34:47;9.70;99.90
23579;DHT22;11967;50.852;4.400;2023-12-20T02:37:13;9.60;99.90
23579;DHT22;11967;50.852;4.400;2023-12-20T02:39:39;9.60;99.90
23579;DHT22;11967;50.852;4.400;2023-12-20T02:42:04;9.60;99.90
23579;DHT22;11967;50.852;4.400;2023-12-20T02:44:30;9.50;99.90
23579;DHT22;11967;50.852;4.400;2023-12-20T02:46:56;9.40;99.90
23579;DHT22;11967;50.852;4.400;2023-12-20T02:49:22;9.40;99.90
23579;DHT22;11967;50.852;4.400;2023-12-20T02:51:48;9.30;99.90
23579;DHT22;11967;50.852;4.400;2023-12-20T02:54:14;9.20;99.90
23579;DHT22;11967;50.852;4.400;2023-12-20T02:56:39;9.20;99.90
23579;DHT22;11967;50.852;4.400;2023-12-20T02:59:05;9.20;99.90
23579;DHT22;11967;50.852;4.400;2023-12-20T03:01:31;9.20;99.90
23579;DHT22;11967;50.852;4.400;2023-12-20T03:03:57;9.30;99.90
23579;DHT22;11967;50.852;4.400;2023-12-20T03:06:23;9.30;99.90
23579;DHT22;11967;50.852;4.400;2023-12-20T03:08:48;9.30;99.90
23579;DHT22;11967;50.852;4.400;2023-12-20T03:11:14;9.20;99.90
23579;DHT22;11967;50.852;4.400;2023-12-20T03:13:39;9.20;99.90
23579;DHT22;11967;50.852;4.400;2023-12-20T03:16:12;9.20;99.90
23579;DHT22;11967;50.852;4.400;2023-12-20T03:18:38;9.10;99.90
23579;DHT22;11967;50.852;4.400;2023-12-20T03:21:05;9.10;99.90
23579;DHT22;11967;50.852;4.400;2023-12-20T03:23:31;9.00;99.90
23579;DHT22;11967;50.852;4.400;2023-12-20T03:25:58;9.10;99.90
23579;DHT22;11967;50.852;4.400;2023-12-20T03:28:24;9.20;99.90
23579;DHT22;11967;50.852;4.400;2023-12-20T03:30:50;9.30;99.90
23579;DHT22;11967;50.852;4.400;2023-12-20T03:33:15;9.30;99.90
23579;DHT22;11967;50.852;4.400;2023-12-20T03:35:41;9.40;99.90
23579;DHT22;11967;50.852;4.400;2023-12-20T03:38:07;9.30;99.90
23579;DHT22;11967;50.852;4.400;2023-12-20T03:40:33;9.40;99.90
23579;DHT22;11967;50.852;4.400;2023-12-20T03:42:59;9.30;99.90
23579;DHT22;11967;50.852;4.400;2023-12-20T03:45:25;9.20;99.90
23579;DHT22;11967;50.852;4.400;2023-12-20T03:47:50;9.20;99.90
23579;DHT22;11967;50.852;4.400;2023-12-20T03:50:21;9.20;99.90
23579;DHT22;11967;50.852;4.400;2023-12-20T03:52:47;9.20;99.90
23579;DHT22;11967;50.852;4.400;2023-12-20T03:55:13;9.20;99.90
23579;DHT22;11967;50.852;4.400;2023-12-20T03:57:38;9.20;99.90
23579;DHT22;11967;50.852;4.400;2023-12-20T04:00:05;9.30;99.90
23579;DHT22;11967;50.852;4.400;2023-12-20T04:02:34;9.30;99.90
23579;DHT22;11967;50.852;4.400;2023-12-20T04:05:00;9.30;99.90
23579;DHT22;11967;50.852;4.400;2023-12-20T04:07:25;9.30;99.90
23579;DHT22;11967;50.852;4.400;2023-12-20T04:09:51;9.30;99.90
23579;DHT22;11967;50.852;4.400;2023-12-20T04:12:17;9.40;99.90
23579;DHT22;11967;50.852;4.400;2023-12-20T04:14:42;9.40;99.90
23579;DHT22;11967;50.852;4.400;2023-12-20T04:17:08;9.40;99.90
23579;DHT22;11967;50.852;4.400;2023-12-20T04:19:34;9.30;99.90
23579;DHT22;11967;50.852;4.400;2023-12-20T04:21:59;9.30;99.90
23579;DHT22;11967;50.852;4.400;2023-12-20T04:24:25;9.20;99.90
23579;DHT22;11967;50.852;4.400;2023-12-20T04:26:50;9.20;99.90
23579;DHT22;11967;50.852;4.400;2023-12-20T04:29:17;9.30;99.90
23579;DHT22;11967;50.852;4.400;2023-12-20T04:31:42;9.20;99.90
23579;DHT22;11967;50.852;4.400;2023-12-20T04:34:08;9.10;99.90
23579;DHT22;11967;50.852;4.400;2023-12-20T04:36:33;9.10;99.90
23579;DHT22;11967;50.852;4.400;2023-12-20T04:38:59;9.10;99.90
23579;DHT22;11967;50.852;4.400;2023-12-20T04:41:25;9.00;99.90
23579;DHT22;11967;50.852;4.400;2023-12-20T04:43:52;9.00;99.90
23579;DHT22;11967;50.852;4.400;2023-12-20T04:46:17;8.90;99.90
23579;DHT22;11967;50.852;4.400;2023-12-20T04:48:43;8.80;99.90
23579;DHT22;11967;50.852;4.400;2023-12-20T04:51:09;8.90;99.90
23579;DHT22;11967;50.852;4.400;2023-12-20T04:53:34;8.90;99.90
23579;DHT22;11967;50.852;4.400;2023-12-20T04:56:00;8.90;99.90
23579;DHT22;11967;50.852;4.400;2023-12-20T04:58:26;9.00;99.90
23579;DHT22;11967;50.852;4.400;2023-12-20T05:00:51;9.00;99.90
23579;DHT22;11967;50.852;4.400;2023-12-20T05:03:17;8.90;99.90
23579;DHT22;11967;50.852;4.400;2023-12-20T05:05:43;9.00;99.90
23579;DHT22;11967;50.852;4.400;2023-12-20T05:08:08;9.00;99.90
23579;DHT22;11967;50.852;4.400;2023-12-20T05:10:34;9.00;99.90
23579;DHT22;11967;50.852;4.400;2023-12-20T05:13:04;8.90;99.90
23579;DHT22;11967;50.852;4.400;2023-12-20T05:15:36;8.90;99.90
23579;DHT22;11967;50.852;4.400;2023-12-20T05:18:01;9.00;99.90
23579;DHT22;11967;50.852;4.400;2023-12-20T05:20:27;9.00;99.90
23579;DHT22;11967;50.852;4.400;2023-12-20T05:22:53;8.90;99.90
23579;DHT22;11967;50.852;4.400;2023-12-20T05:25:18;8.90;99.90
23579;DHT22;11967;50.852;4.400;2023-12-20T05:27:45;8.80;99.90
23579;DHT22;11967;50.852;4.400;2023-12-20T05:30:11;8.80;99.90
23579;DHT22;11967;50.852;4.400;2023-12-20T05:32:37;8.90;99.90
23579;DHT22;11967;50.852;4.400;2023-12-20T05:35:03;8.90;99.90
23579;DHT22;11967;50.852;4.400;2023-12-20T05:37:28;8.90;99.90
23579;DHT22;11967;50.852;4.400;2023-12-20T05:39:54;8.80;99.90
23579;DHT22;11967;50.852;4.400;2023-12-20T05:42:20;8.80;99.90
23579;DHT22;11967;50.852;4.400;2023-12-20T05:44:45;8.80;99.90
23579;DHT22;11967;50.852;4.400;2023-12-20T05:47:11;8.70;99.90
23579;DHT22;11967;50.852;4.400;2023-12-20T05:49:36;8.70;99.90
23579;DHT22;11967;50.852;4.400;2023-12-20T05:52:02;8.70;99.90
23579;DHT22;11967;50.852;4.400;2023-12-20T05:54:28;8.70;99.90
23579;DHT22;11967;50.852;4.400;2023-12-20T05:56:54;8.80;99.90
23579;DHT22;11967;50.852;4.400;2023-12-20T05:59:19;8.80;99.90
23579;DHT22;11967;50.852;4.400;2023-12-20T06:01:45;8.80;99.90
23579;DHT22;11967;50.852;4.400;2023-12-20T06:04:11;8.70;99.90
23579;DHT22;11967;50.852;4.400;2023-12-20T06:06:43;8.60;99.90
23579;DHT22;11967;50.852;4.400;2023-12-20T06:09:09;8.60;99.90
23579;DHT22;11967;50.852;4.400;2023-12-20T06:11:34;8.60;99.90
23579;DHT22;11967;50.852;4.400;2023-12-20T06:14:00;8.50;99.90
23579;DHT22;11967;50.852;4.400;2023-12-20T06:16:25;8.60;99.90
23579;DHT22;11967;50.852;4.400;2023-12-20T06:18:51;8.60;99.90
23579;DHT22;11967;50.852;4.400;2023-12-20T06:21:17;8.60;99.90
23579;DHT22;11967;50.852;4.400;2023-12-20T06:23:42;8.60;99.90
23579;DHT22;11967;50.852;4.400;2023-12-20T06:26:08;8.50;99.90
23579;DHT22;11967;50.852;4.400;2023-12-20T06:28:33;8.60;99.90
23579;DHT22;11967;50.852;4.400;2023-12-20T06:30:59;8.60;99.90
23579;DHT22;11967;50.852;4.400;2023-12-20T06:33:26;8.50;99.90
23579;DHT22;11967;50.852;4.400;2023-12-20T06:35:52;8.50;99.90
23579;DHT22;11967;50.852;4.400;2023-12-20T06:38:18;8.40;99.90
23579;DHT22;11967;50.852;4.400;2023-12-20T06:40:44;8.40;99.90
23579;DHT22;11967;50.852;4.400;2023-12-20T06:43:10;8.40;99.90
23579;DHT22;11967;50.852;4.400;2023-12-20T06:45:36;8.30;99.90
23579;DHT22;11967;50.852;4.400;2023-12-20T06:48:01;8.30;99.90
23579;DHT22;11967;50.852;4.400;2023-12-20T06:50:27;8.50;99.90
23579;DHT22;11967;50.852;4.400;2023-12-20T06:52:53;8.50;99.90
23579;DHT22;11967;50.852;4.400;2023-12-20T06:55:19;8.50;99.90
23579;DHT22;11967;50.852;4.400;2023-12-20T06:57:44;8.60;99.90
23579;DHT22;11967;50.852;4.400;2023-12-20T07:00:11;8.60;99.90
23579;DHT22;11967;50.852;4.400;2023-12-20T07:02:37;8.60;99.90
23579;DHT22;11967;50.852;4.400;2023-12-20T07:05:03;8.70;99.90
23579;DHT22;11967;50.852;4.400;2023-12-20T07:07:29;8.60;99.90
23579;DHT22;11967;50.852;4.400;2023-12-20T07:09:55;8.60;99.90
23579;DHT22;11967;50.852;4.400;2023-12-20T07:12:21;8.60;99.90
23579;DHT22;11967;50.852;4.400;2023-12-20T07:14:46;8.50;99.90
23579;DHT22;11967;50.852;4.400;2023-12-20T07:17:12;8.40;99.90
23579;DHT22;11967;50.852;4.400;2023-12-20T07:19:40;8.40;99.90
23579;DHT22;11967;50.852;4.400;2023-12-20T07:22:06;8.30;99.90
23579;DHT22;11967;50.852;4.400;2023-12-20T07:24:32;8.50;99.90
23579;DHT22;11967;50.852;4.400;2023-12-20T07:26:59;8.50;99.90
23579;DHT22;11967;50.852;4.400;2023-12-20T07:29:25;8.50;99.90
23579;DHT22;11967;50.852;4.400;2023-12-20T07:31:51;8.50;99.90
23579;DHT22;11967;50.852;4.400;2023-12-20T07:34:18;8.50;99.90
23579;DHT22;11967;50.852;4.400;2023-12-20T07:36:44;8.50;99.90
23579;DHT22;11967;50.852;4.400;2023-12-20T07:39:10;8.50;99.90
23579;DHT22;11967;50.852;4.400;2023-12-20T07:41:36;8.40;99.90
23579;DHT22;11967;50.852;4.400;2023-12-20T07:44:01;8.30;99.90
23579;DHT22;11967;50.852;4.400;2023-12-20T07:46:27;8.10;99.90
23579;DHT22;11967;50.852;4.400;2023-12-20T07:48:53;8.20;99.90
23579;DHT22;11967;50.852;4.400;2023-12-20T07:51:18;8.20;99.90
23579;DHT22;11967;50.852;4.400;2023-12-20T07:53:46;8.10;99.90
23579;DHT22;11967;50.852;4.400;2023-12-20T07:56:16;8.20;99.90
23579;DHT22;11967;50.852;4.400;2023-12-20T07:58:42;8.10;99.90
23579;DHT22;11967;50.852;4.400;2023-12-20T08:01:08;8.10;99.90
23579;DHT22;11967;50.852;4.400;2023-12-20T08:03:34;8.20;99.90
23579;DHT22;11967;50.852;4.400;2023-12-20T08:06:00;8.30;99.90
23579;DHT22;11967;50.852;4.400;2023-12-20T08:08:26;8.30;99.90
23579;DHT22;11967;50.852;4.400;2023-12-20T08:10:52;8.20;99.90
23579;DHT22;11967;50.852;4.400;2023-12-20T08:13:17;8.30;99.90
23579;DHT22;11967;50.852;4.400;2023-12-20T08:15:43;8.20;99.90
23579;DHT22;11967;50.852;4.400;2023-12-20T08:18:09;8.10;99.90
23579;DHT22;11967;50.852;4.400;2023-12-20T08:20:34;8.10;99.90
23579;DHT22;11967;50.852;4.400;2023-12-20T08:23:00;8.30;99.90
23579;DHT22;11967;50.852;4.400;2023-12-20T08:25:26;8.30;99.90
23579;DHT22;11967;50.852;4.400;2023-12-20T08:27:52;8.30;99.90
23579;DHT22;11967;50.852;4.400;2023-12-20T08:30:18;8.20;99.90
23579;DHT22;11967;50.852;4.400;2023-12-20T08:32:50;8.30;99.90
23579;DHT22;11967;50.852;4.400;2023-12-20T08:35:16;8.30;99.90
23579;DHT22;11967;50.852;4.400;2023-12-20T08:37:42;8.20;99.90
23579;DHT22;11967;50.852;4.400;2023-12-20T08:40:08;8.20;99.90
23579;DHT22;11967;50.852;4.400;2023-12-20T08:42:33;8.20;99.90
23579;DHT22;11967;50.852;4.400;2023-12-20T08:44:59;8.20;99.90
23579;DHT22;11967;50.852;4.400;2023-12-20T08:47:25;8.30;99.90
23579;DHT22;11967;50.852;4.400;2023-12-20T08:49:51;8.20;99.90
23579;DHT22;11967;50.852;4.400;2023-12-20T08:52:16;8.30;99.90
23579;DHT22;11967;50.852;4.400;2023-12-20T08:54:43;8.40;99.90
23579;DHT22;11967;50.852;4.400;2023-12-20T08:57:08;8.60;99.90
23579;DHT22;11967;50.852;4.400;2023-12-20T08:59:34;8.60;99.90
23579;DHT22;11967;50.852;4.400;2023-12-20T09:02:01;8.60;99.90
23579;DHT22;11967;50.852;4.400;2023-12-20T09:04:29;8.70;99.90
23579;DHT22;11967;50.852;4.400;2023-12-20T09:06:55;8.70;99.90
23579;DHT22;11967;50.852;4.400;2023-12-20T09:09:22;8.60;99.90
23579;DHT22;11967;50.852;4.400;2023-12-20T09:11:47;8.60;99.90
23579;DHT22;11967;50.852;4.400;2023-12-20T09:14:15;8.50;99.90
23579;DHT22;11967;50.852;4.400;2023-12-20T09:16:41;8.50;99.90
23579;DHT22;11967;50.852;4.400;2023-12-20T09:19:06;8.50;99.90
23579;DHT22;11967;50.852;4.400;2023-12-20T09:21:32;8.40;99.90
23579;DHT22;11967;50.852;4.400;2023-12-20T09:23:58;8.40;99.90
23579;DHT22;11967;50.852;4.400;2023-12-20T09:26:24;8.40;99.90
23579;DHT22;11967;50.852;4.400;2023-12-20T09:28:49;8.50;99.90
23579;DHT22;11967;50.852;4.400;2023-12-20T09:31:15;8.60;99.90
23579;DHT22;11967;50.852;4.400;2023-12-20T09:33:41;8.60;99.90
23579;DHT22;11967;50.852;4.400;2023-12-20T09:36:07;8.70;99.90
23579;DHT22;11967;50.852;4.400;2023-12-20T09:38:33;8.70;99.90
23579;DHT22;11967;50.852;4.400;2023-12-20T09:40:59;8.80;99.90
23579;DHT22;11967;50.852;4.400;2023-12-20T09:43:26;8.90;99.90
23579;DHT22;11967;50.852;4.400;2023-12-20T09:45:54;8.80;99.90
23579;DHT22;11967;50.852;4.400;2023-12-20T09:48:22;9.00;99.90
23579;DHT22;11967;50.852;4.400;2023-12-20T09:50:48;9.10;99.90
23579;DHT22;11967;50.852;4.400;2023-12-20T09:53:15;9.10;99.90
23579;DHT22;11967;50.852;4.400;2023-12-20T09:55:42;8.90;99.90
23579;DHT22;11967;50.852;4.400;2023-12-20T09:58:08;9.00;99.90
23579;DHT22;11967;50.852;4.400;2023-12-20T10:00:37;9.00;99.90
23579;DHT22;11967;50.852;4.400;2023-12-20T10:03:03;9.00;99.90
23579;DHT22;11967;50.852;4.400;2023-12-20T10:05:32;8.90;99.90
23579;DHT22;11967;50.852;4.400;2023-12-20T10:07:59;8.90;99.90
23579;DHT22;11967;50.852;4.400;2023-12-20T10:10:25;8.90;99.90
23579;DHT22;11967;50.852;4.400;2023-12-20T10:13:10;8.80;99.90
23579;DHT22;11967;50.852;4.400;2023-12-20T10:15:37;8.90;99.90
23579;DHT22;11967;50.852;4.400;2023-12-20T10:18:03;8.90;99.90
23579;DHT22;11967;50.852;4.400;2023-12-20T10:20:29;8.90;99.90
23579;DHT22;11967;50.852;4.400;2023-12-20T10:22:56;9.10;99.90
23579;DHT22;11967;50.852;4.400;2023-12-20T10:25:22;9.20;99.90
23579;DHT22;11967;50.852;4.400;2023-12-20T10:27:49;9.20;99.90
23579;DHT22;11967;50.852;4.400;2023-12-20T10:30:15;9.10;99.90
23579;DHT22;11967;50.852;4.400;2023-12-20T10:32:41;9.00;99.90
23579;DHT22;11967;50.852;4.400;2023-12-20T10:35:08;9.00;99.90
23579;DHT22;11967;50.852;4.400;2023-12-20T10:37:37;9.10;99.90
23579;DHT22;11967;50.852;4.400;2023-12-20T10:40:04;9.10;99.90
23579;DHT22;11967;50.852;4.400;2023-12-20T10:42:32;9.20;99.90
23579;DHT22;11967;50.852;4.400;2023-12-20T10:45:00;9.30;99.90
23579;DHT22;11967;50.852;4.400;2023-12-20T10:47:26;9.30;99.90
23579;DHT22;11967;50.852;4.400;2023-12-20T10:49:54;9.30;99.90
23579;DHT22;11967;50.852;4.400;2023-12-20T10:52:23;9.40;99.90
23579;DHT22;11967;50.852;4.400;2023-12-20T10:54:50;9.40;99.90
23579;DHT22;11967;50.852;4.400;2023-12-20T10:57:18;9.40;99.90
23579;DHT22;11967;50.852;4.400;2023-12-20T10:59:45;9.40;99.90
23579;DHT22;11967;50.852;4.400;2023-12-20T11:02:14;9.40;99.90
23579;DHT22;11967;50.852;4.400;2023-12-20T11:05:10;9.40;99.90
23579;DHT22;11967;50.852;4.400;2023-12-20T11:07:48;9.40;99.90
23579;DHT22;11967;50.852;4.400;2023-12-20T11:10:19;9.30;99.90
23579;DHT22;11967;50.852;4.400;2023-12-20T11:12:50;9.30;99.90
23579;DHT22;11967;50.852;4.400;2023-12-20T11:15:18;9.30;99.90
23579;DHT22;11967;50.852;4.400;2023-12-20T11:17:54;9.20;99.90
23579;DHT22;11967;50.852;4.400;2023-12-20T11:20:23;9.30;99.90
23579;DHT22;11967;50.852;4.400;2023-12-20T11:22:55;9.30;99.90
23579;DHT22;11967;50.852;4.400;2023-12-20T11:25:21;9.30;99.90
23579;DHT22;11967;50.852;4.400;2023-12-20T11:28:09;9.30;99.90
23579;DHT22;11967;50.852;4.400;2023-12-20T11:30:53;9.30;99.90
23579;DHT22;11967;50.852;4.400;2023-12-20T11:33:23;9.30;99.90
23579;DHT22;11967;50.852;4.400;2023-12-20T11:35:50;9.30;99.90
23579;DHT22;11967;50.852;4.400;2023-12-20T11:38:16;9.30;99.90
23579;DHT22;11967;50.852;4.400;2023-12-20T11:40:43;9.30;99.90
23579;DHT22;11967;50.852;4.400;2023-12-20T11:43:09;9.40;99.90
23579;DHT22;11967;50.852;4.400;2023-12-20T11:45:35;9.40;99.90
23579;DHT22;11967;50.852;4.400;2023-12-20T11:48:04;9.50;99.90
23579;DHT22;11967;50.852;4.400;2023-12-20T11:50:31;9.50;99.90
23579;DHT22;11967;50.852;4.400;2023-12-20T11:52:57;9.50;99.90
23579;DHT22;11967;50.852;4.400;2023-12-20T11:55:23;9.50;99.90
23579;DHT22;11967;50.852;4.400;2023-12-20T11:57:50;9.50;99.90
23579;DHT22;11967;50.852;4.400;2023-12-20T12:00:17;9.50;99.90
23579;DHT22;11967;50.852;4.400;2023-12-20T12:02:43;9.50;99.90
23579;DHT22;11967;50.852;4.400;2023-12-20T12:05:09;9.50;99.90
23579;DHT22;11967;50.852;4.400;2023-12-20T12:07:35;9.60;99.90
23579;DHT22;11967;50.852;4.400;2023-12-20T12:10:01;9.70;99.90
23579;DHT22;11967;50.852;4.400;2023-12-20T12:12:26;9.80;99.90
23579;DHT22;11967;50.852;4.400;2023-12-20T12:14:53;9.80;99.90
23579;DHT22;11967;50.852;4.400;2023-12-20T12:17:19;9.80;99.90
23579;DHT22;11967;50.852;4.400;2023-12-20T12:19:45;9.90;99.90
23579;DHT22;11967;50.852;4.400;2023-12-20T12:22:13;10.00;99.90
23579;DHT22;11967;50.852;4.400;2023-12-20T12:24:43;10.00;99.90
23579;DHT22;11967;50.852;4.400;2023-12-20T12:27:09;9.80;99.90
23579;DHT22;11967;50.852;4.400;2023-12-20T12:29:36;9.80;99.90
23579;DHT22;11967;50.852;4.400;2023-12-20T12:32:06;9.80;99.90
23579;DHT22;11967;50.852;4.400;2023-12-20T12:34:33;9.80;99.90
23579;DHT22;11967;50.852;4.400;2023-12-20T12:37:00;9.80;99.90
23579;DHT22;11967;50.852;4.400;2023-12-20T12:39:26;9.80;99.90
23579;DHT22;11967;50.852;4.400;2023-12-20T12:41:52;9.80;99.90
23579;DHT22;11967;50.852;4.400;2023-12-20T12:44:18;9.80;99.90
23579;DHT22;11967;50.852;4.400;2023-12-20T12:46:46;9.90;99.90
23579;DHT22;11967;50.852;4.400;2023-12-20T12:49:15;9.90;99.90
23579;DHT22;11967;50.852;4.400;2023-12-20T12:51:40;9.90;99.90
23579;DHT22;11967;50.852;4.400;2023-12-20T12:54:06;9.80;99.90
23579;DHT22;11967;50.852;4.400;2023-12-20T12:56:32;9.80;99.90
23579;DHT22;11967;50.852;4.400;2023-12-20T12:58:58;9.90;99.90
23579;DHT22;11967;50.852;4.400;2023-12-20T13:01:23;9.80;99.90
23579;DHT22;11967;50.852;4.400;2023-12-20T13:03:49;9.90;99.90
23579;DHT22;11967;50.852;4.400;2023-12-20T13:06:16;10.00;99.90
23579;DHT22;11967;50.852;4.400;2023-12-20T13:08:43;9.90;99.90
23579;DHT22;11967;50.852;4.400;2023-12-20T13:11:09;9.90;99.90
23579;DHT22;11967;50.852;4.400;2023-12-20T13:13:35;9.90;99.90
23579;DHT22;11967;50.852;4.400;2023-12-20T13:16:01;9.90;99.90
23579;DHT22;11967;50.852;4.400;2023-12-20T13:18:26;10.00;99.90
23579;DHT22;11967;50.852;4.400;2023-12-20T13:20:52;10.10;99.90
23579;DHT22;11967;50.852;4.400;2023-12-20T13:23:18;10.20;99.90
23579;DHT22;11967;50.852;4.400;2023-12-20T13:25:44;10.20;99.90
23579;DHT22;11967;50.852;4.400;2023-12-20T13:28:13;10.30;99.90
23579;DHT22;11967;50.852;4.400;2023-12-20T13:30:39;10.30;99.90
23579;DHT22;11967;50.852;4.400;2023-12-20T13:33:05;10.40;99.90
23579;DHT22;11967;50.852;4.400;2023-12-20T13:35:32;10.40;99.90
23579;DHT22;11967;50.852;4.400;2023-12-20T13:37:58;10.30;99.90
23579;DHT22;11967;50.852;4.400;2023-12-20T13:40:24;10.30;99.90
23579;DHT22;11967;50.852;4.400;2023-12-20T13:42:49;10.30;99.90
23579;DHT22;11967;50.852;4.400;2023-12-20T13:45:16;10.30;99.90
23579;DHT22;11967;50.852;4.400;2023-12-20T13:47:41;10.20;99.90
23579;DHT22;11967;50.852;4.400;2023-12-20T13:50:07;10.20;99.90
23579;DHT22;11967;50.852;4.400;2023-12-20T13:52:33;10.20;99.90
23579;DHT22;11967;50.852;4.400;2023-12-20T13:54:59;10.20;99.90
23579;DHT22;11967;50.852;4.400;2023-12-20T13:57:24;10.20;99.90
23579;DHT22;11967;50.852;4.400;2023-12-20T13:59:50;10.10;99.90
23579;DHT22;11967;50.852;4.400;2023-12-20T14:02:15;10.20;99.90
23579;DHT22;11967;50.852;4.400;2023-12-20T14:04:44;10.20;99.90
23579;DHT22;11967;50.852;4.400;2023-12-20T14:07:10;10.30;99.90
23579;DHT22;11967;50.852;4.400;2023-12-20T14:09:36;10.20;99.90
23579;DHT22;11967;50.852;4.400;2023-12-20T14:12:02;10.20;99.90
23579;DHT22;11967;50.852;4.400;2023-12-20T14:14:27;10.20;99.90
23579;DHT22;11967;50.852;4.400;2023-12-20T14:16:53;10.30;99.90
23579;DHT22;11967;50.852;4.400;2023-12-20T14:19:19;10.40;99.90
23579;DHT22;11967;50.852;4.400;2023-12-20T14:21:44;10.30;99.90
23579;DHT22;11967;50.852;4.400;2023-12-20T14:24:13;10.40;99.90
23579;DHT22;11967;50.852;4.400;2023-12-20T14:26:40;10.30;99.90
23579;DHT22;11967;50.852;4.400;2023-12-20T14:29:06;10.30;99.90
23579;DHT22;11967;50.852;4.400;2023-12-20T14:31:33;10.40;99.90
23579;DHT22;11967;50.852;4.400;2023-12-20T14:33:58;10.40;99.90
23579;DHT22;11967;50.852;4.400;2023-12-20T14:36:25;10.40;99.90
23579;DHT22;11967;50.852;4.400;2023-12-20T14:38:50;10.40;99.90
23579;DHT22;11967;50.852;4.400;2023-12-20T14:41:16;10.50;99.90
23579;DHT22;11967;50.852;4.400;2023-12-20T14:43:44;10.50;99.90
23579;DHT22;11967;50.852;4.400;2023-12-20T14:46:10;10.50;99.90
23579;DHT22;11967;50.852;4.400;2023-12-20T14:48:35;10.50;99.90
23579;DHT22;11967;50.852;4.400;2023-12-20T14:51:01;10.40;99.90
23579;DHT22;11967;50.852;4.400;2023-12-20T14:53:27;10.40;99.90
23579;DHT22;11967;50.852;4.400;2023-12-20T14:55:52;10.50;99.90
23579;DHT22;11967;50.852;4.400;2023-12-20T14:58:18;10.50;99.90
23579;DHT22;11967;50.852;4.400;2023-12-20T15:00:44;10.60;99.90
23579;DHT22;11967;50.852;4.400;2023-12-20T15:03:10;10.50;99.90
23579;DHT22;11967;50.852;4.400;2023-12-20T15:05:36;10.60;99.90
23579;DHT22;11967;50.852;4.400;2023-12-20T15:08:02;10.50;99.90
23579;DHT22;11967;50.852;4.400;2023-12-20T15:10:28;10.60;99.90
23579;DHT22;11967;50.852;4.400;2023-12-20T15:12:53;10.50;99.90
23579;DHT22;11967;50.852;4.400;2023-12-20T15:15:21;10.50;99.90
23579;DHT22;11967;50.852;4.400;2023-12-20T15:17:47;10.60;99.90
23579;DHT22;11967;50.852;4.400;2023-12-20T15:20:13;10.60;99.90
23579;DHT22;11967;50.852;4.400;2023-12-20T15:22:39;10.50;99.90
23579;DHT22;11967;50.852;4.400;2023-12-20T15:25:06;10.60;99.90
23579;DHT22;11967;50.852;4.400;2023-12-20T15:27:34;10.60;99.90
23579;DHT22;11967;50.852;4.400;2023-12-20T15:30:03;10.60;99.90
23579;DHT22;11967;50.852;4.400;2023-12-20T15:32:28;10.60;99.90
23579;DHT22;11967;50.852;4.400;2023-12-20T15:34:54;10.60;99.90
23579;DHT22;11967;50.852;4.400;2023-12-20T15:37:20;10.60;99.90